sensor_id;sensor_type;location;lat;lon;timestamp;P1;durP1;ratioP1;P2;durP2;ratioP2
31128;SDS011;17777;48.770;8.944;2023-11-21T00:00:31;0.80;;;0.55;;
31128;SDS011;17777;48.770;8.944;2023-11-21T00:02:57;1.00;;;0.52;;
31128;SDS011;17777;48.770;8.944;2023-11-21T00:05:22;2.05;;;0.93;;
31128;SDS011;17777;48.770;8.944;2023-11-21T00:07:48;2.28;;;0.60;;
31128;SDS011;17777;48.770;8.944;2023-11-21T00:10:14;0.68;;;0.50;;
31128;SDS011;17777;48.770;8.944;2023-11-21T00:12:41;3.65;;;0.55;;
31128;SDS011;17777;48.770;8.944;2023-11-21T00:15:07;1.80;;;0.60;;
31128;SDS011;17777;48.770;8.944;2023-11-21T00:17:37;1.17;;;0.60;;
31128;SDS011;17777;48.770;8.944;2023-11-21T00:20:04;0.90;;;0.50;;
31128;SDS011;17777;48.770;8.944;2023-11-21T00:22:32;1.65;;;0.55;;
31128;SDS011;17777;48.770;8.944;2023-11-21T00:24:59;0.93;;;0.50;;
31128;SDS011;17777;48.770;8.944;2023-11-21T00:27:25;1.05;;;0.82;;
31128;SDS011;17777;48.770;8.944;2023-11-21T00:29:51;1.27;;;0.40;;
31128;SDS011;17777;48.770;8.944;2023-11-21T00:32:17;2.03;;;0.70;;
31128;SDS011;17777;48.770;8.944;2023-11-21T00:34:42;1.05;;;0.57;;
31128;SDS011;17777;48.770;8.944;2023-11-21T00:37:09;1.50;;;0.68;;
31128;SDS011;17777;48.770;8.944;2023-11-21T00:39:35;3.08;;;0.90;;
31128;SDS011;17777;48.770;8.944;2023-11-21T00:42:00;1.48;;;0.80;;
31128;SDS011;17777;48.770;8.944;2023-11-21T00:44:26;1.90;;;0.68;;
31128;SDS011;17777;48.770;8.944;2023-11-21T00:46:52;3.22;;;0.90;;
31128;SDS011;17777;48.770;8.944;2023-11-21T00:49:18;2.30;;;0.80;;
31128;SDS011;17777;48.770;8.944;2023-11-21T00:51:44;2.25;;;1.00;;
31128;SDS011;17777;48.770;8.944;2023-11-21T00:54:10;2.08;;;0.60;;
31128;SDS011;17777;48.770;8.944;2023-11-21T00:56:36;2.30;;;0.88;;
31128;SDS011;17777;48.770;8.944;2023-11-21T00:59:02;3.45;;;0.60;;
31128;SDS011;17777;48.770;8.944;2023-11-21T01:01:30;1.00;;;0.70;;
31128;SDS011;17777;48.770;8.944;2023-11-21T01:03:55;2.78;;;0.75;;
31128;SDS011;17777;48.770;8.944;2023-11-21T01:06:21;1.15;;;0.60;;
31128;SDS011;17777;48.770;8.944;2023-11-21T01:08:47;1.42;;;0.70;;
31128;SDS011;17777;48.770;8.944;2023-11-21T01:11:13;2.72;;;0.68;;
31128;SDS011;17777;48.770;8.944;2023-11-21T01:13:39;1.38;;;0.70;;
31128;SDS011;17777;48.770;8.944;2023-11-21T01:16:05;1.17;;;0.73;;
31128;SDS011;17777;48.770;8.944;2023-11-21T01:18:33;1.98;;;0.82;;
31128;SDS011;17777;48.770;8.944;2023-11-21T01:21:00;1.08;;;0.63;;
31128;SDS011;17777;48.770;8.944;2023-11-21T01:23:26;3.40;;;1.13;;
31128;SDS011;17777;48.770;8.944;2023-11-21T01:25:52;4.28;;;0.70;;
31128;SDS011;17777;48.770;8.944;2023-11-21T01:28:20;1.73;;;0.70;;
31128;SDS011;17777;48.770;8.944;2023-11-21T01:30:47;1.33;;;0.73;;
31128;SDS011;17777;48.770;8.944;2023-11-21T01:33:14;1.90;;;0.60;;
31128;SDS011;17777;48.770;8.944;2023-11-21T01:35:43;2.00;;;0.80;;
31128;SDS011;17777;48.770;8.944;2023-11-21T01:38:11;1.42;;;0.70;;
31128;SDS011;17777;48.770;8.944;2023-11-21T01:40:37;3.53;;;0.73;;
31128;SDS011;17777;48.770;8.944;2023-11-21T01:43:03;1.20;;;0.57;;
31128;SDS011;17777;48.770;8.944;2023-11-21T01:45:29;1.48;;;0.60;;
31128;SDS011;17777;48.770;8.944;2023-11-21T01:47:59;1.77;;;0.65;;
31128;SDS011;17777;48.770;8.944;2023-11-21T01:50:26;2.13;;;0.60;;
31128;SDS011;17777;48.770;8.944;2023-11-21T01:52:52;0.93;;;0.55;;
31128;SDS011;17777;48.770;8.944;2023-11-21T01:55:19;1.67;;;0.47;;
31128;SDS011;17777;48.770;8.944;2023-11-21T01:57:45;0.98;;;0.63;;
31128;SDS011;17777;48.770;8.944;2023-11-21T02:00:12;1.15;;;0.60;;
31128;SDS011;17777;48.770;8.944;2023-11-21T02:02:48;0.82;;;0.60;;
31128;SDS011;17777;48.770;8.944;2023-11-21T02:05:14;0.63;;;0.50;;
31128;SDS011;17777;48.770;8.944;2023-11-21T02:07:45;1.33;;;0.47;;
31128;SDS011;17777;48.770;8.944;2023-11-21T02:10:15;0.70;;;0.50;;
31128;SDS011;17777;48.770;8.944;2023-11-21T02:12:42;1.10;;;0.50;;
31128;SDS011;17777;48.770;8.944;2023-11-21T02:15:12;0.68;;;0.40;;
31128;SDS011;17777;48.770;8.944;2023-11-21T02:17:45;1.48;;;0.60;;
31128;SDS011;17777;48.770;8.944;2023-11-21T02:20:16;0.63;;;0.30;;
31128;SDS011;17777;48.770;8.944;2023-11-21T02:22:52;0.85;;;0.40;;
31128;SDS011;17777;48.770;8.944;2023-11-21T02:25:23;0.60;;;0.40;;
31128;SDS011;17777;48.770;8.944;2023-11-21T02:27:51;0.55;;;0.47;;
31128;SDS011;17777;48.770;8.944;2023-11-21T02:30:17;1.65;;;0.70;;
31128;SDS011;17777;48.770;8.944;2023-11-21T02:32:43;0.77;;;0.50;;
31128;SDS011;17777;48.770;8.944;2023-11-21T02:35:09;2.58;;;0.60;;
31128;SDS011;17777;48.770;8.944;2023-11-21T02:37:37;1.90;;;0.45;;
31128;SDS011;17777;48.770;8.944;2023-11-21T02:40:04;3.33;;;0.60;;
31128;SDS011;17777;48.770;8.944;2023-11-21T02:42:32;2.28;;;1.05;;
31128;SDS011;17777;48.770;8.944;2023-11-21T02:44:59;1.25;;;0.52;;
31128;SDS011;17777;48.770;8.944;2023-11-21T02:47:25;2.78;;;0.68;;
31128;SDS011;17777;48.770;8.944;2023-11-21T02:49:51;0.70;;;0.40;;
31128;SDS011;17777;48.770;8.944;2023-11-21T02:52:17;1.02;;;0.50;;
31128;SDS011;17777;48.770;8.944;2023-11-21T02:54:53;0.43;;;0.40;;
31128;SDS011;17777;48.770;8.944;2023-11-21T02:57:19;1.02;;;0.60;;
31128;SDS011;17777;48.770;8.944;2023-11-21T03:05:20;1.08;;;0.60;;
31128;SDS011;17777;48.770;8.944;2023-11-21T03:07:46;3.47;;;0.77;;
31128;SDS011;17777;48.770;8.944;2023-11-21T03:10:12;1.52;;;0.52;;
31128;SDS011;17777;48.770;8.944;2023-11-21T03:12:38;0.80;;;0.43;;
31128;SDS011;17777;48.770;8.944;2023-11-21T03:15:05;1.77;;;0.55;;
31128;SDS011;17777;48.770;8.944;2023-11-21T03:17:32;3.63;;;0.40;;
31128;SDS011;17777;48.770;8.944;2023-11-21T03:20:02;1.60;;;0.50;;
31128;SDS011;17777;48.770;8.944;2023-11-21T03:22:29;1.73;;;0.50;;
31128;SDS011;17777;48.770;8.944;2023-11-21T03:24:55;1.23;;;0.40;;
31128;SDS011;17777;48.770;8.944;2023-11-21T03:27:20;1.15;;;0.50;;
31128;SDS011;17777;48.770;8.944;2023-11-21T03:29:46;1.00;;;0.40;;
31128;SDS011;17777;48.770;8.944;2023-11-21T03:32:15;0.55;;;0.40;;
31128;SDS011;17777;48.770;8.944;2023-11-21T03:34:54;1.20;;;0.43;;
31128;SDS011;17777;48.770;8.944;2023-11-21T03:37:22;1.38;;;0.50;;
31128;SDS011;17777;48.770;8.944;2023-11-21T03:39:49;1.13;;;0.32;;
31128;SDS011;17777;48.770;8.944;2023-11-21T03:42:16;1.10;;;0.45;;
31128;SDS011;17777;48.770;8.944;2023-11-21T03:44:42;0.90;;;0.30;;
31128;SDS011;17777;48.770;8.944;2023-11-21T03:47:08;0.55;;;0.55;;
31128;SDS011;17777;48.770;8.944;2023-11-21T03:49:34;0.57;;;0.45;;
31128;SDS011;17777;48.770;8.944;2023-11-21T03:52:00;0.85;;;0.50;;
31128;SDS011;17777;48.770;8.944;2023-11-21T03:54:25;2.25;;;1.02;;
31128;SDS011;17777;48.770;8.944;2023-11-21T03:56:51;1.20;;;0.45;;
31128;SDS011;17777;48.770;8.944;2023-11-21T03:59:17;1.10;;;0.40;;
31128;SDS011;17777;48.770;8.944;2023-11-21T04:01:43;1.42;;;0.50;;
31128;SDS011;17777;48.770;8.944;2023-11-21T04:04:08;1.08;;;0.60;;
31128;SDS011;17777;48.770;8.944;2023-11-21T04:06:34;1.73;;;0.63;;
31128;SDS011;17777;48.770;8.944;2023-11-21T04:09:01;0.80;;;0.80;;
31128;SDS011;17777;48.770;8.944;2023-11-21T04:11:26;1.40;;;0.68;;
31128;SDS011;17777;48.770;8.944;2023-11-21T04:13:55;0.82;;;0.50;;
31128;SDS011;17777;48.770;8.944;2023-11-21T04:16:20;1.15;;;0.47;;
31128;SDS011;17777;48.770;8.944;2023-11-21T04:18:46;0.82;;;0.30;;
31128;SDS011;17777;48.770;8.944;2023-11-21T04:21:12;3.70;;;0.40;;
31128;SDS011;17777;48.770;8.944;2023-11-21T04:23:38;1.67;;;0.50;;
31128;SDS011;17777;48.770;8.944;2023-11-21T04:26:05;2.00;;;0.50;;
31128;SDS011;17777;48.770;8.944;2023-11-21T04:28:31;0.90;;;0.50;;
31128;SDS011;17777;48.770;8.944;2023-11-21T04:30:56;5.15;;;1.05;;
31128;SDS011;17777;48.770;8.944;2023-11-21T04:33:22;3.40;;;1.40;;
31128;SDS011;17777;48.770;8.944;2023-11-21T04:35:48;1.75;;;0.80;;
31128;SDS011;17777;48.770;8.944;2023-11-21T04:38:15;3.53;;;1.17;;
31128;SDS011;17777;48.770;8.944;2023-11-21T04:40:40;3.10;;;0.80;;
31128;SDS011;17777;48.770;8.944;2023-11-21T04:43:06;1.13;;;0.65;;
31128;SDS011;17777;48.770;8.944;2023-11-21T04:45:32;1.10;;;0.57;;
31128;SDS011;17777;48.770;8.944;2023-11-21T04:47:58;3.80;;;0.60;;
31128;SDS011;17777;48.770;8.944;2023-11-21T04:50:24;1.95;;;0.65;;
31128;SDS011;17777;48.770;8.944;2023-11-21T04:52:52;0.45;;;0.45;;
31128;SDS011;17777;48.770;8.944;2023-11-21T04:55:18;1.98;;;0.70;;
31128;SDS011;17777;48.770;8.944;2023-11-21T04:57:44;0.93;;;0.60;;
31128;SDS011;17777;48.770;8.944;2023-11-21T05:00:12;0.57;;;0.50;;
31128;SDS011;17777;48.770;8.944;2023-11-21T05:02:38;0.60;;;0.60;;
31128;SDS011;17777;48.770;8.944;2023-11-21T05:05:06;0.73;;;0.52;;
31128;SDS011;17777;48.770;8.944;2023-11-21T05:07:35;0.50;;;0.50;;
31128;SDS011;17777;48.770;8.944;2023-11-21T05:10:01;0.82;;;0.80;;
31128;SDS011;17777;48.770;8.944;2023-11-21T05:12:35;1.67;;;0.65;;
31128;SDS011;17777;48.770;8.944;2023-11-21T05:15:03;0.80;;;0.63;;
31128;SDS011;17777;48.770;8.944;2023-11-21T05:17:35;0.98;;;0.60;;
31128;SDS011;17777;48.770;8.944;2023-11-21T05:20:02;0.40;;;0.40;;
31128;SDS011;17777;48.770;8.944;2023-11-21T05:22:30;0.35;;;0.35;;
31128;SDS011;17777;48.770;8.944;2023-11-21T05:24:56;4.03;;;0.77;;
31128;SDS011;17777;48.770;8.944;2023-11-21T05:27:21;0.90;;;0.50;;
31128;SDS011;17777;48.770;8.944;2023-11-21T05:29:47;0.73;;;0.57;;
31128;SDS011;17777;48.770;8.944;2023-11-21T05:32:13;1.75;;;0.90;;
31128;SDS011;17777;48.770;8.944;2023-11-21T05:34:39;2.92;;;1.02;;
31128;SDS011;17777;48.770;8.944;2023-11-21T05:37:04;1.95;;;0.90;;
31128;SDS011;17777;48.770;8.944;2023-11-21T05:39:31;2.63;;;1.10;;
31128;SDS011;17777;48.770;8.944;2023-11-21T05:41:57;3.72;;;2.33;;
31128;SDS011;17777;48.770;8.944;2023-11-21T05:44:22;5.32;;;3.13;;
31128;SDS011;17777;48.770;8.944;2023-11-21T05:46:48;5.38;;;2.75;;
31128;SDS011;17777;48.770;8.944;2023-11-21T05:49:15;4.38;;;2.28;;
31128;SDS011;17777;48.770;8.944;2023-11-21T05:51:41;2.47;;;1.80;;
31128;SDS011;17777;48.770;8.944;2023-11-21T05:54:07;4.03;;;2.08;;
31128;SDS011;17777;48.770;8.944;2023-11-21T05:56:33;3.65;;;1.70;;
31128;SDS011;17777;48.770;8.944;2023-11-21T05:58:59;2.05;;;1.73;;
31128;SDS011;17777;48.770;8.944;2023-11-21T06:01:25;1.60;;;1.20;;
31128;SDS011;17777;48.770;8.944;2023-11-21T06:03:54;1.63;;;0.98;;
31128;SDS011;17777;48.770;8.944;2023-11-21T06:06:20;1.33;;;1.15;;
31128;SDS011;17777;48.770;8.944;2023-11-21T06:08:48;0.77;;;0.77;;
31128;SDS011;17777;48.770;8.944;2023-11-21T06:11:14;1.02;;;0.80;;
31128;SDS011;17777;48.770;8.944;2023-11-21T06:13:41;2.05;;;1.00;;
31128;SDS011;17777;48.770;8.944;2023-11-21T06:16:07;0.95;;;0.65;;
31128;SDS011;17777;48.770;8.944;2023-11-21T06:18:33;1.80;;;1.00;;
31128;SDS011;17777;48.770;8.944;2023-11-21T06:21:00;1.40;;;1.10;;
31128;SDS011;17777;48.770;8.944;2023-11-21T06:23:26;1.13;;;1.02;;
31128;SDS011;17777;48.770;8.944;2023-11-21T06:25:52;1.08;;;0.70;;
31128;SDS011;17777;48.770;8.944;2023-11-21T06:28:18;1.13;;;0.95;;
31128;SDS011;17777;48.770;8.944;2023-11-21T06:30:44;1.48;;;1.30;;
31128;SDS011;17777;48.770;8.944;2023-11-21T06:33:10;1.20;;;0.90;;
31128;SDS011;17777;48.770;8.944;2023-11-21T06:35:36;1.80;;;0.88;;
31128;SDS011;17777;48.770;8.944;2023-11-21T06:38:02;1.35;;;1.20;;
31128;SDS011;17777;48.770;8.944;2023-11-21T06:40:28;1.13;;;1.02;;
31128;SDS011;17777;48.770;8.944;2023-11-21T06:42:54;1.00;;;0.70;;
31128;SDS011;17777;48.770;8.944;2023-11-21T06:45:20;0.70;;;0.70;;
31128;SDS011;17777;48.770;8.944;2023-11-21T06:47:46;0.70;;;0.50;;
31128;SDS011;17777;48.770;8.944;2023-11-21T06:50:12;2.90;;;0.70;;
31128;SDS011;17777;48.770;8.944;2023-11-21T06:52:39;0.80;;;0.52;;
31128;SDS011;17777;48.770;8.944;2023-11-21T06:55:04;0.90;;;0.60;;
31128;SDS011;17777;48.770;8.944;2023-11-21T06:57:33;0.98;;;0.70;;
31128;SDS011;17777;48.770;8.944;2023-11-21T06:59:59;2.15;;;0.68;;
31128;SDS011;17777;48.770;8.944;2023-11-21T07:02:25;0.90;;;0.60;;
31128;SDS011;17777;48.770;8.944;2023-11-21T07:04:50;0.30;;;0.30;;
31128;SDS011;17777;48.770;8.944;2023-11-21T07:07:18;0.55;;;0.43;;
31128;SDS011;17777;48.770;8.944;2023-11-21T07:09:44;0.50;;;0.40;;
31128;SDS011;17777;48.770;8.944;2023-11-21T07:12:10;0.80;;;0.52;;
31128;SDS011;17777;48.770;8.944;2023-11-21T07:14:36;0.57;;;0.35;;
31128;SDS011;17777;48.770;8.944;2023-11-21T07:17:04;0.47;;;0.47;;
31128;SDS011;17777;48.770;8.944;2023-11-21T07:19:30;2.28;;;1.00;;
31128;SDS011;17777;48.770;8.944;2023-11-21T07:21:56;2.38;;;0.70;;
31128;SDS011;17777;48.770;8.944;2023-11-21T07:24:21;0.82;;;0.70;;
31128;SDS011;17777;48.770;8.944;2023-11-21T07:26:50;1.85;;;0.80;;
31128;SDS011;17777;48.770;8.944;2023-11-21T07:29:15;0.95;;;0.65;;
31128;SDS011;17777;48.770;8.944;2023-11-21T07:31:41;1.95;;;0.68;;
31128;SDS011;17777;48.770;8.944;2023-11-21T07:34:07;0.95;;;0.60;;
31128;SDS011;17777;48.770;8.944;2023-11-21T07:36:33;1.02;;;0.50;;
31128;SDS011;17777;48.770;8.944;2023-11-21T07:38:59;1.50;;;0.70;;
31128;SDS011;17777;48.770;8.944;2023-11-21T07:41:27;0.65;;;0.65;;
31128;SDS011;17777;48.770;8.944;2023-11-21T07:43:54;0.50;;;0.50;;
31128;SDS011;17777;48.770;8.944;2023-11-21T07:46:21;0.65;;;0.57;;
31128;SDS011;17777;48.770;8.944;2023-11-21T07:48:47;0.60;;;0.50;;
31128;SDS011;17777;48.770;8.944;2023-11-21T07:51:13;0.60;;;0.52;;
31128;SDS011;17777;48.770;8.944;2023-11-21T07:53:39;1.85;;;0.60;;
31128;SDS011;17777;48.770;8.944;2023-11-21T07:56:05;0.70;;;0.70;;
31128;SDS011;17777;48.770;8.944;2023-11-21T07:58:35;0.80;;;0.68;;
31128;SDS011;17777;48.770;8.944;2023-11-21T08:01:02;1.05;;;0.70;;
31128;SDS011;17777;48.770;8.944;2023-11-21T08:03:28;1.95;;;0.70;;
31128;SDS011;17777;48.770;8.944;2023-11-21T08:05:55;1.75;;;0.90;;
31128;SDS011;17777;48.770;8.944;2023-11-21T08:08:22;0.75;;;0.63;;
31128;SDS011;17777;48.770;8.944;2023-11-21T08:10:49;0.73;;;0.70;;
31128;SDS011;17777;48.770;8.944;2023-11-21T08:13:27;1.27;;;0.70;;
31128;SDS011;17777;48.770;8.944;2023-11-21T08:15:55;0.73;;;0.68;;
31128;SDS011;17777;48.770;8.944;2023-11-21T08:18:28;0.50;;;0.50;;
31128;SDS011;17777;48.770;8.944;2023-11-21T08:20:54;3.08;;;0.80;;
31128;SDS011;17777;48.770;8.944;2023-11-21T08:23:21;3.13;;;0.60;;
31128;SDS011;17777;48.770;8.944;2023-11-21T08:25:53;1.23;;;0.80;;
31128;SDS011;17777;48.770;8.944;2023-11-21T08:28:19;0.77;;;0.50;;
31128;SDS011;17777;48.770;8.944;2023-11-21T08:30:47;0.60;;;0.50;;
31128;SDS011;17777;48.770;8.944;2023-11-21T08:33:13;2.08;;;0.70;;
31128;SDS011;17777;48.770;8.944;2023-11-21T08:35:39;1.90;;;0.90;;
31128;SDS011;17777;48.770;8.944;2023-11-21T08:38:04;0.95;;;0.63;;
31128;SDS011;17777;48.770;8.944;2023-11-21T08:40:30;0.95;;;0.73;;
31128;SDS011;17777;48.770;8.944;2023-11-21T08:42:57;2.75;;;0.88;;
31128;SDS011;17777;48.770;8.944;2023-11-21T08:45:25;0.85;;;0.60;;
31128;SDS011;17777;48.770;8.944;2023-11-21T08:47:51;2.60;;;0.57;;
31128;SDS011;17777;48.770;8.944;2023-11-21T08:50:17;0.60;;;0.50;;
31128;SDS011;17777;48.770;8.944;2023-11-21T08:52:44;1.30;;;0.70;;
31128;SDS011;17777;48.770;8.944;2023-11-21T08:55:11;0.65;;;0.40;;
31128;SDS011;17777;48.770;8.944;2023-11-21T08:57:38;0.95;;;0.63;;
31128;SDS011;17777;48.770;8.944;2023-11-21T09:00:06;1.58;;;0.60;;
31128;SDS011;17777;48.770;8.944;2023-11-21T09:02:36;1.33;;;0.90;;
31128;SDS011;17777;48.770;8.944;2023-11-21T09:05:04;1.27;;;0.70;;
31128;SDS011;17777;48.770;8.944;2023-11-21T09:07:31;1.67;;;0.75;;
31128;SDS011;17777;48.770;8.944;2023-11-21T09:09:57;0.98;;;0.70;;
31128;SDS011;17777;48.770;8.944;2023-11-21T09:12:22;1.70;;;0.80;;
31128;SDS011;17777;48.770;8.944;2023-11-21T09:14:50;0.88;;;0.82;;
31128;SDS011;17777;48.770;8.944;2023-11-21T09:17:16;1.88;;;1.10;;
31128;SDS011;17777;48.770;8.944;2023-11-21T09:19:42;0.95;;;0.70;;
31128;SDS011;17777;48.770;8.944;2023-11-21T09:22:15;1.20;;;0.70;;
31128;SDS011;17777;48.770;8.944;2023-11-21T09:24:42;0.93;;;0.60;;
31128;SDS011;17777;48.770;8.944;2023-11-21T09:27:07;1.90;;;0.70;;
31128;SDS011;17777;48.770;8.944;2023-11-21T09:29:35;1.30;;;0.75;;
31128;SDS011;17777;48.770;8.944;2023-11-21T09:32:03;1.90;;;0.70;;
31128;SDS011;17777;48.770;8.944;2023-11-21T09:34:33;1.38;;;1.08;;
31128;SDS011;17777;48.770;8.944;2023-11-21T09:37:03;3.35;;;1.58;;
31128;SDS011;17777;48.770;8.944;2023-11-21T09:39:32;2.28;;;1.40;;
31128;SDS011;17777;48.770;8.944;2023-11-21T09:42:10;2.40;;;1.40;;
31128;SDS011;17777;48.770;8.944;2023-11-21T09:45:08;1.02;;;0.90;;
31128;SDS011;17777;48.770;8.944;2023-11-21T09:47:38;2.30;;;0.77;;
31128;SDS011;17777;48.770;8.944;2023-11-21T09:50:04;1.40;;;0.90;;
31128;SDS011;17777;48.770;8.944;2023-11-21T09:52:38;1.27;;;0.57;;
31128;SDS011;17777;48.770;8.944;2023-11-21T09:55:18;0.70;;;0.60;;
31128;SDS011;17777;48.770;8.944;2023-11-21T09:57:46;2.47;;;0.70;;
31128;SDS011;17777;48.770;8.944;2023-11-21T10:00:16;0.90;;;0.50;;
31128;SDS011;17777;48.770;8.944;2023-11-21T10:02:43;1.48;;;0.60;;
31128;SDS011;17777;48.770;8.944;2023-11-21T10:05:09;1.33;;;0.70;;
31128;SDS011;17777;48.770;8.944;2023-11-21T10:07:36;0.70;;;0.60;;
31128;SDS011;17777;48.770;8.944;2023-11-21T10:10:05;1.23;;;1.02;;
31128;SDS011;17777;48.770;8.944;2023-11-21T10:12:33;1.40;;;1.10;;
31128;SDS011;17777;48.770;8.944;2023-11-21T10:15:01;2.28;;;0.98;;
31128;SDS011;17777;48.770;8.944;2023-11-21T10:17:31;3.28;;;0.75;;
31128;SDS011;17777;48.770;8.944;2023-11-21T10:20:07;2.08;;;1.05;;
31128;SDS011;17777;48.770;8.944;2023-11-21T10:22:45;0.90;;;0.80;;
31128;SDS011;17777;48.770;8.944;2023-11-21T10:25:11;0.98;;;0.88;;
31128;SDS011;17777;48.770;8.944;2023-11-21T10:27:39;0.82;;;0.60;;
31128;SDS011;17777;48.770;8.944;2023-11-21T10:30:06;0.70;;;0.63;;
31128;SDS011;17777;48.770;8.944;2023-11-21T10:32:37;1.05;;;0.95;;
31128;SDS011;17777;48.770;8.944;2023-11-21T10:35:09;1.40;;;0.88;;
31128;SDS011;17777;48.770;8.944;2023-11-21T10:37:36;1.33;;;1.00;;
31128;SDS011;17777;48.770;8.944;2023-11-21T10:40:09;1.63;;;1.08;;
31128;SDS011;17777;48.770;8.944;2023-11-21T10:42:39;1.08;;;0.70;;
31128;SDS011;17777;48.770;8.944;2023-11-21T10:45:06;0.63;;;0.63;;
31128;SDS011;17777;48.770;8.944;2023-11-21T10:50:09;0.40;;;0.40;;
31128;SDS011;17777;48.770;8.944;2023-11-21T10:52:39;0.65;;;0.65;;
31128;SDS011;17777;48.770;8.944;2023-11-21T10:55:20;0.57;;;0.47;;
31128;SDS011;17777;48.770;8.944;2023-11-21T10:57:48;0.40;;;0.40;;
31128;SDS011;17777;48.770;8.944;2023-11-21T11:00:18;0.30;;;0.30;;
31128;SDS011;17777;48.770;8.944;2023-11-21T11:02:50;0.98;;;0.57;;
31128;SDS011;17777;48.770;8.944;2023-11-21T11:05:19;0.50;;;0.50;;
31128;SDS011;17777;48.770;8.944;2023-11-21T11:07:49;0.60;;;0.60;;
31128;SDS011;17777;48.770;8.944;2023-11-21T11:10:22;0.60;;;0.60;;
31128;SDS011;17777;48.770;8.944;2023-11-21T11:12:51;0.85;;;0.70;;
31128;SDS011;17777;48.770;8.944;2023-11-21T11:15:19;0.68;;;0.68;;
31128;SDS011;17777;48.770;8.944;2023-11-21T11:17:45;0.65;;;0.65;;
31128;SDS011;17777;48.770;8.944;2023-11-21T11:20:12;0.43;;;0.43;;
31128;SDS011;17777;48.770;8.944;2023-11-21T11:22:50;0.82;;;0.40;;
31128;SDS011;17777;48.770;8.944;2023-11-21T11:26:02;0.40;;;0.40;;
31128;SDS011;17777;48.770;8.944;2023-11-21T11:37:02;0.30;;;0.30;;
31128;SDS011;17777;48.770;8.944;2023-11-21T11:39:31;0.55;;;0.43;;
31128;SDS011;17777;48.770;8.944;2023-11-21T11:42:06;1.20;;;0.50;;
31128;SDS011;17777;48.770;8.944;2023-11-21T11:52:51;1.88;;;0.90;;
31128;SDS011;17777;48.770;8.944;2023-11-21T11:55:22;0.77;;;0.73;;
31128;SDS011;17777;48.770;8.944;2023-11-21T12:02:53;1.85;;;1.55;;
31128;SDS011;17777;48.770;8.944;2023-11-21T12:05:25;1.67;;;1.10;;
31128;SDS011;17777;48.770;8.944;2023-11-21T12:07:58;2.70;;;1.50;;
31128;SDS011;17777;48.770;8.944;2023-11-21T12:10:27;1.75;;;1.30;;
31128;SDS011;17777;48.770;8.944;2023-11-21T12:12:56;1.08;;;0.98;;
31128;SDS011;17777;48.770;8.944;2023-11-21T12:15:27;1.45;;;1.20;;
31128;SDS011;17777;48.770;8.944;2023-11-21T12:17:56;1.55;;;1.10;;
31128;SDS011;17777;48.770;8.944;2023-11-21T12:20:24;1.05;;;1.05;;
31128;SDS011;17777;48.770;8.944;2023-11-21T12:22:52;1.30;;;1.20;;
31128;SDS011;17777;48.770;8.944;2023-11-21T12:25:24;1.60;;;1.50;;
31128;SDS011;17777;48.770;8.944;2023-11-21T12:27:56;1.52;;;1.42;;
31128;SDS011;17777;48.770;8.944;2023-11-21T12:30:24;1.40;;;1.30;;
31128;SDS011;17777;48.770;8.944;2023-11-21T12:32:56;2.15;;;1.95;;
31128;SDS011;17777;48.770;8.944;2023-11-21T12:35:24;1.63;;;1.52;;
31128;SDS011;17777;48.770;8.944;2023-11-21T12:37:55;1.80;;;1.70;;
31128;SDS011;17777;48.770;8.944;2023-11-21T12:40:25;1.95;;;1.30;;
31128;SDS011;17777;48.770;8.944;2023-11-21T12:42:52;2.10;;;1.42;;
31128;SDS011;17777;48.770;8.944;2023-11-21T12:45:24;1.30;;;1.20;;
31128;SDS011;17777;48.770;8.944;2023-11-21T12:50:28;1.40;;;1.17;;
31128;SDS011;17777;48.770;8.944;2023-11-21T12:52:59;1.30;;;1.13;;
31128;SDS011;17777;48.770;8.944;2023-11-21T12:55:41;1.30;;;1.20;;
31128;SDS011;17777;48.770;8.944;2023-11-21T12:58:09;1.40;;;1.30;;
31128;SDS011;17777;48.770;8.944;2023-11-21T13:00:37;1.85;;;1.30;;
31128;SDS011;17777;48.770;8.944;2023-11-21T13:03:11;1.48;;;1.30;;
31128;SDS011;17777;48.770;8.944;2023-11-21T13:05:42;1.27;;;1.17;;
31128;SDS011;17777;48.770;8.944;2023-11-21T13:08:18;1.60;;;1.50;;
31128;SDS011;17777;48.770;8.944;2023-11-21T13:10:48;2.35;;;1.65;;
31128;SDS011;17777;48.770;8.944;2023-11-21T13:13:19;1.73;;;1.63;;
31128;SDS011;17777;48.770;8.944;2023-11-21T13:15:49;3.60;;;1.92;;
31128;SDS011;17777;48.770;8.944;2023-11-21T13:18:23;2.10;;;1.90;;
31128;SDS011;17777;48.770;8.944;2023-11-21T13:20:52;1.70;;;1.60;;
31128;SDS011;17777;48.770;8.944;2023-11-21T13:23:20;1.25;;;1.15;;
31128;SDS011;17777;48.770;8.944;2023-11-21T13:25:45;1.23;;;1.05;;
31128;SDS011;17777;48.770;8.944;2023-11-21T13:28:13;0.68;;;0.68;;
31128;SDS011;17777;48.770;8.944;2023-11-21T13:30:40;1.55;;;0.60;;
31128;SDS011;17777;48.770;8.944;2023-11-21T13:33:07;0.70;;;0.70;;
31128;SDS011;17777;48.770;8.944;2023-11-21T13:35:35;0.90;;;0.73;;
31128;SDS011;17777;48.770;8.944;2023-11-21T13:40:37;0.63;;;0.60;;
31128;SDS011;17777;48.770;8.944;2023-11-21T13:43:10;0.80;;;0.70;;
31128;SDS011;17777;48.770;8.944;2023-11-21T13:45:40;0.40;;;0.40;;
31128;SDS011;17777;48.770;8.944;2023-11-21T13:48:08;0.40;;;0.40;;
31128;SDS011;17777;48.770;8.944;2023-11-21T13:50:38;0.68;;;0.50;;
31128;SDS011;17777;48.770;8.944;2023-11-21T13:53:28;0.57;;;0.50;;
31128;SDS011;17777;48.770;8.944;2023-11-21T13:55:54;1.30;;;0.60;;
31128;SDS011;17777;48.770;8.944;2023-11-21T13:58:21;1.00;;;0.73;;
31128;SDS011;17777;48.770;8.944;2023-11-21T14:01:04;1.33;;;0.77;;
31128;SDS011;17777;48.770;8.944;2023-11-21T14:03:31;0.95;;;0.80;;
31128;SDS011;17777;48.770;8.944;2023-11-21T14:06:09;0.77;;;0.73;;
31128;SDS011;17777;48.770;8.944;2023-11-21T14:08:41;0.63;;;0.60;;
31128;SDS011;17777;48.770;8.944;2023-11-21T14:11:07;0.60;;;0.60;;
31128;SDS011;17777;48.770;8.944;2023-11-21T14:13:36;0.50;;;0.50;;
31128;SDS011;17777;48.770;8.944;2023-11-21T14:16:02;0.80;;;0.60;;
31128;SDS011;17777;48.770;8.944;2023-11-21T14:18:31;1.15;;;0.47;;
31128;SDS011;17777;48.770;8.944;2023-11-21T14:21:04;0.47;;;0.47;;
31128;SDS011;17777;48.770;8.944;2023-11-21T14:23:35;0.70;;;0.55;;
31128;SDS011;17777;48.770;8.944;2023-11-21T14:26:03;0.70;;;0.70;;
31128;SDS011;17777;48.770;8.944;2023-11-21T14:28:31;0.60;;;0.60;;
31128;SDS011;17777;48.770;8.944;2023-11-21T14:30:57;0.70;;;0.50;;
31128;SDS011;17777;48.770;8.944;2023-11-21T14:33:22;1.42;;;0.60;;
31128;SDS011;17777;48.770;8.944;2023-11-21T14:35:48;0.60;;;0.60;;
31128;SDS011;17777;48.770;8.944;2023-11-21T14:38:15;0.55;;;0.40;;
31128;SDS011;17777;48.770;8.944;2023-11-21T14:40:41;0.52;;;0.40;;
31128;SDS011;17777;48.770;8.944;2023-11-21T14:43:07;0.57;;;0.43;;
31128;SDS011;17777;48.770;8.944;2023-11-21T14:45:33;0.40;;;0.40;;
31128;SDS011;17777;48.770;8.944;2023-11-21T14:47:59;0.52;;;0.50;;
31128;SDS011;17777;48.770;8.944;2023-11-21T14:50:29;0.50;;;0.47;;
31128;SDS011;17777;48.770;8.944;2023-11-21T14:53:08;0.50;;;0.50;;
31128;SDS011;17777;48.770;8.944;2023-11-21T14:55:34;2.60;;;0.50;;
31128;SDS011;17777;48.770;8.944;2023-11-21T14:58:16;0.47;;;0.47;;
31128;SDS011;17777;48.770;8.944;2023-11-21T15:00:52;0.90;;;0.40;;
31128;SDS011;17777;48.770;8.944;2023-11-21T15:03:23;0.40;;;0.40;;
31128;SDS011;17777;48.770;8.944;2023-11-21T15:05:56;1.08;;;0.55;;
31128;SDS011;17777;48.770;8.944;2023-11-21T15:08:50;0.90;;;0.90;;
31128;SDS011;17777;48.770;8.944;2023-11-21T15:11:31;1.30;;;0.95;;
31128;SDS011;17777;48.770;8.944;2023-11-21T15:13:58;0.82;;;0.70;;
31128;SDS011;17777;48.770;8.944;2023-11-21T15:16:25;0.60;;;0.60;;
31128;SDS011;17777;48.770;8.944;2023-11-21T15:18:52;0.47;;;0.47;;
31128;SDS011;17777;48.770;8.944;2023-11-21T15:21:20;0.50;;;0.50;;
31128;SDS011;17777;48.770;8.944;2023-11-21T15:23:47;0.98;;;0.95;;
31128;SDS011;17777;48.770;8.944;2023-11-21T15:26:13;1.30;;;1.08;;
31128;SDS011;17777;48.770;8.944;2023-11-21T15:28:39;2.03;;;1.00;;